createdAt,value
2022-11-24T00:00:01.140Z,1007.03
2022-11-24T00:01:01.144Z,1007.07
2022-11-24T00:02:01.243Z,1007.07
2022-11-24T00:03:01.226Z,1007.01
2022-11-24T00:04:01.051Z,1007.01
2022-11-24T00:05:01.443Z,1007.08
2022-11-24T00:06:02.200Z,1007.02
2022-11-24T00:07:01.074Z,1007.01
2022-11-24T00:08:01.052Z,1007.05
2022-11-24T00:09:01.090Z,1007.08
2022-11-24T00:10:01.094Z,1007.06
2022-11-24T00:11:01.467Z,1007.03
2022-11-24T00:12:01.439Z,1007.05
2022-11-24T00:13:02.551Z,1007.08
2022-11-24T00:14:01.120Z,1007.07
2022-11-24T00:15:01.125Z,1007.07
2022-11-24T00:16:01.136Z,1007.08
2022-11-24T00:17:01.187Z,1007.05
2022-11-24T00:18:01.057Z,1007.07
2022-11-24T00:19:01.068Z,1007.05
2022-11-24T00:20:01.076Z,1007.08
2022-11-24T00:21:01.159Z,1007.09
2022-11-24T00:22:01.073Z,1007.09
2022-11-24T00:23:01.086Z,1007.05
2022-11-24T00:24:01.085Z,1007.06
2022-11-24T00:25:01.091Z,1007.01
2022-11-24T00:26:01.111Z,1007.01
2022-11-24T00:27:01.480Z,1006.96
2022-11-24T00:28:01.160Z,1006.98
2022-11-24T00:29:01.357Z,1006.99
2022-11-24T00:30:02.762Z,1006.95
2022-11-24T00:31:02.077Z,1006.92
2022-11-24T00:32:01.056Z,1006.9
2022-11-24T00:33:01.060Z,1006.95
2022-11-24T00:34:01.158Z,1007
2022-11-24T00:35:01.453Z,1006.98
2022-11-24T00:36:01.059Z,1007.02
2022-11-24T00:37:01.065Z,1007.03
2022-11-24T00:38:01.078Z,1007.01
2022-11-24T00:39:01.049Z,1007.03
2022-11-24T00:40:01.094Z,1007.06
2022-11-24T00:41:01.419Z,1007.05
2022-11-24T00:42:02.513Z,1007.04
2022-11-24T00:43:01.068Z,1007.02
2022-11-24T00:44:01.043Z,1007.04
2022-11-24T00:45:12.990Z,1007.07
2022-11-24T00:46:02.649Z,1007.04
2022-11-24T00:47:03.880Z,1007.04
2022-11-24T00:48:02.360Z,1007.03
2022-11-24T00:49:01.235Z,1007.04
2022-11-24T00:50:01.144Z,1007.01
2022-11-24T00:51:01.620Z,1007.01
2022-11-24T00:52:03.964Z,1007.03
2022-11-24T00:53:01.690Z,1007.03
2022-11-24T00:54:02.598Z,1007.06
2022-11-24T00:55:01.372Z,1007
2022-11-24T00:56:04.758Z,1007.04
2022-11-24T00:57:01.081Z,1007.05
2022-11-24T00:58:01.524Z,1007.04
2022-11-24T00:59:01.435Z,1007.03
2022-11-24T01:00:01.145Z,1007.04
2022-11-24T01:01:08.132Z,1007.04
2022-11-24T01:02:01.578Z,1007.09
2022-11-24T01:03:02.890Z,1007.06
2022-11-24T01:04:01.211Z,1007.11
2022-11-24T01:05:01.051Z,1007.05
2022-11-24T01:06:10.506Z,1007.07
2022-11-24T01:07:01.727Z,1007.04
2022-11-24T01:08:04.868Z,1007.08
2022-11-24T01:09:02.189Z,1007.07
2022-11-24T01:10:01.486Z,1007.1
2022-11-24T01:11:13.070Z,1007.09
2022-11-24T01:12:01.062Z,1007.07
2022-11-24T01:13:01.342Z,1007.08
2022-11-24T01:14:00.567Z,1007.15
2022-11-24T01:15:00.279Z,1007.12
2022-11-24T01:16:15.455Z,1007.19
2022-11-24T01:17:01.461Z,1007.18
2022-11-24T01:18:01.485Z,1007.2
2022-11-24T01:19:01.612Z,1007.23
2022-11-24T01:20:02.134Z,1007.19
2022-11-24T01:21:17.382Z,1007.19
2022-11-24T01:22:01.155Z,1007.2
2022-11-24T01:23:00.882Z,1007.19
2022-11-24T01:24:00.569Z,1007.2
2022-11-24T01:25:00.241Z,1007.22
2022-11-24T01:25:59.928Z,1007.27
2022-11-24T01:26:59.529Z,1007.24
2022-11-24T01:28:01.478Z,1007.21
2022-11-24T01:29:01.078Z,1007.23
2022-11-24T01:30:01.043Z,1007.23
2022-11-24T01:31:01.144Z,1007.23
2022-11-24T01:32:01.799Z,1007.21
2022-11-24T01:33:01.073Z,1007.22
2022-11-24T01:34:01.061Z,1007.2
2022-11-24T01:35:01.144Z,1007.23
2022-11-24T01:36:01.275Z,1007.21
2022-11-24T01:37:01.133Z,1007.23
2022-11-24T01:38:01.168Z,1007.18
2022-11-24T01:39:01.050Z,1007.19
2022-11-24T01:40:01.164Z,1007.16
2022-11-24T01:41:01.119Z,1007.21
2022-11-24T01:42:01.042Z,1007.2
2022-11-24T01:43:01.071Z,1007.2
2022-11-24T01:44:01.177Z,1007.18
2022-11-24T01:45:01.484Z,1007.26
2022-11-24T01:46:02.107Z,1007.25
2022-11-24T01:47:01.420Z,1007.23
2022-11-24T01:48:01.108Z,1007.23
2022-11-24T01:49:01.955Z,1007.23
2022-11-24T01:50:01.326Z,1007.19
2022-11-24T01:51:01.138Z,1007.21
2022-11-24T01:52:01.131Z,1007.23
2022-11-24T01:53:01.131Z,1007.2
2022-11-24T01:54:01.059Z,1007.16
2022-11-24T01:55:01.156Z,1007.22
2022-11-24T01:56:01.143Z,1007.24
2022-11-24T01:57:01.055Z,1007.26
2022-11-24T01:58:01.071Z,1007.25
2022-11-24T01:59:01.234Z,1007.26
2022-11-24T02:00:01.568Z,1007.2
2022-11-24T02:01:02.137Z,1007.17
2022-11-24T02:02:01.457Z,1007.2
2022-11-24T02:03:02.268Z,1007.19
2022-11-24T02:04:02.525Z,1007.19
2022-11-24T02:05:01.125Z,1007.17
2022-11-24T02:06:01.120Z,1007.21
2022-11-24T02:07:01.115Z,1007.15
2022-11-24T02:08:01.058Z,1007.15
2022-11-24T02:09:01.271Z,1007.18
2022-11-24T02:10:01.157Z,1007.19
2022-11-24T02:11:01.136Z,1007.21
2022-11-24T02:12:01.541Z,1007.24
2022-11-24T02:13:01.553Z,1007.29
2022-11-24T02:14:01.045Z,1007.27
2022-11-24T02:15:01.066Z,1007.32
2022-11-24T02:16:01.109Z,1007.3
2022-11-24T02:17:01.887Z,1007.33
2022-11-24T02:18:01.692Z,1007.32
2022-11-24T02:19:01.180Z,1007.32
2022-11-24T02:20:01.530Z,1007.33
2022-11-24T02:21:01.517Z,1007.33
2022-11-24T02:22:01.109Z,1007.34
2022-11-24T02:23:01.051Z,1007.34
2022-11-24T02:24:01.134Z,1007.37
2022-11-24T02:25:01.066Z,1007.39
2022-11-24T02:26:01.123Z,1007.37
2022-11-24T02:27:01.522Z,1007.44
2022-11-24T02:28:01.139Z,1007.43
2022-11-24T02:29:01.150Z,1007.41
2022-11-24T02:30:16.118Z,1007.43
2022-11-24T02:31:01.136Z,1007.45
2022-11-24T02:32:01.093Z,1007.45
2022-11-24T02:33:01.205Z,1007.47
2022-11-24T02:34:01.626Z,1007.46
2022-11-24T02:35:01.909Z,1007.49
2022-11-24T02:36:02.189Z,1007.49
2022-11-24T02:37:03.311Z,1007.49
2022-11-24T02:38:01.801Z,1007.48
2022-11-24T02:39:01.952Z,1007.49
2022-11-24T02:40:17.056Z,1007.51
2022-11-24T02:41:01.145Z,1007.53
2022-11-24T02:42:06.237Z,1007.56
2022-11-24T02:43:01.520Z,1007.58
2022-11-24T02:44:00.805Z,1007.53
2022-11-24T02:45:00.362Z,1007.58
2022-11-24T02:45:59.989Z,1007.57
2022-11-24T02:47:09.536Z,1007.52
2022-11-24T02:48:01.085Z,1007.56
2022-11-24T02:49:01.076Z,1007.51
2022-11-24T02:50:01.476Z,1007.57
2022-11-24T02:51:01.756Z,1007.56
2022-11-24T02:52:13.206Z,1007.56
2022-11-24T02:53:01.891Z,1007.51
2022-11-24T02:54:01.062Z,1007.58
2022-11-24T02:55:01.041Z,1007.51
2022-11-24T02:56:01.045Z,1007.6
2022-11-24T02:57:16.161Z,1007.58
2022-11-24T02:58:01.508Z,1007.58
2022-11-24T02:59:01.159Z,1007.6
2022-11-24T03:00:03.887Z,1007.68
2022-11-24T03:01:01.048Z,1007.71
2022-11-24T03:02:01.130Z,1007.72
2022-11-24T03:03:01.127Z,1007.7
2022-11-24T03:04:01.173Z,1007.73
2022-11-24T03:05:01.774Z,1007.73
2022-11-24T03:06:02.485Z,1007.73
2022-11-24T03:07:01.404Z,1007.76
2022-11-24T03:08:01.044Z,1007.72
2022-11-24T03:09:01.674Z,1007.72
2022-11-24T03:10:01.232Z,1007.7
2022-11-24T03:11:01.855Z,1007.68
2022-11-24T03:12:01.811Z,1007.67
2022-11-24T03:13:01.536Z,1007.7
2022-11-24T03:14:01.165Z,1007.67
2022-11-24T03:15:01.192Z,1007.7
2022-11-24T03:16:01.574Z,1007.62
2022-11-24T03:17:01.520Z,1007.65
2022-11-24T03:18:01.145Z,1007.62
2022-11-24T03:19:01.058Z,1007.65
2022-11-24T03:20:04.643Z,1007.68
2022-11-24T03:21:01.050Z,1007.72
2022-11-24T03:22:01.071Z,1007.67
2022-11-24T03:23:01.086Z,1007.65
2022-11-24T03:24:01.089Z,1007.68
2022-11-24T03:25:01.480Z,1007.64
2022-11-24T03:26:01.094Z,1007.69
2022-11-24T03:27:01.095Z,1007.68
2022-11-24T03:28:01.108Z,1007.66
2022-11-24T03:29:01.116Z,1007.67
2022-11-24T03:30:01.117Z,1007.64
2022-11-24T03:31:01.172Z,1007.67
2022-11-24T03:32:01.138Z,1007.69
2022-11-24T03:33:01.525Z,1007.66
2022-11-24T03:34:01.094Z,1007.65
2022-11-24T03:35:01.047Z,1007.67
2022-11-24T03:36:01.094Z,1007.67
2022-11-24T03:37:01.079Z,1007.69
2022-11-24T03:38:01.253Z,1007.72
2022-11-24T03:39:01.434Z,1007.7
2022-11-24T03:40:02.171Z,1007.73
2022-11-24T03:41:01.049Z,1007.72
2022-11-24T03:42:01.095Z,1007.72
2022-11-24T03:43:01.096Z,1007.72
2022-11-24T03:44:01.112Z,1007.77
2022-11-24T03:45:16.645Z,1007.77
2022-11-24T03:46:01.713Z,1007.75
2022-11-24T03:47:01.926Z,1007.8
2022-11-24T03:48:02.142Z,1007.8
2022-11-24T03:49:01.137Z,1007.76
2022-11-24T03:50:01.140Z,1007.77
2022-11-24T03:51:01.224Z,1007.73
2022-11-24T03:52:07.677Z,1007.75
2022-11-24T03:53:01.978Z,1007.69
2022-11-24T03:54:01.214Z,1007.76
2022-11-24T03:55:01.084Z,1007.71
2022-11-24T03:56:01.075Z,1007.73
2022-11-24T03:57:01.461Z,1007.78
2022-11-24T03:58:02.017Z,1007.77
2022-11-24T03:59:01.094Z,1007.75
2022-11-24T04:00:01.043Z,1007.74
2022-11-24T04:01:01.110Z,1007.71
2022-11-24T04:02:01.187Z,1007.72
2022-11-24T04:03:01.595Z,1007.72
2022-11-24T04:04:01.153Z,1007.73
2022-11-24T04:05:01.155Z,1007.72
2022-11-24T04:06:01.421Z,1007.74
2022-11-24T04:07:01.157Z,1007.8
2022-11-24T04:08:01.051Z,1007.76
2022-11-24T04:09:01.053Z,1007.8
2022-11-24T04:10:01.927Z,1007.79
2022-11-24T04:11:01.062Z,1007.77
2022-11-24T04:12:01.050Z,1007.8
2022-11-24T04:13:00.880Z,1007.75
2022-11-24T04:14:01.438Z,1007.77
2022-11-24T04:15:00.466Z,1007.77
2022-11-24T04:16:00.159Z,1007.74
2022-11-24T04:16:59.872Z,1007.81
2022-11-24T04:18:04.386Z,1007.78
2022-11-24T04:19:01.077Z,1007.76
2022-11-24T04:20:01.043Z,1007.71
2022-11-24T04:21:01.763Z,1007.72
2022-11-24T04:22:02.464Z,1007.76
2022-11-24T04:23:06.463Z,1007.83
2022-11-24T04:24:01.155Z,1007.85
2022-11-24T04:25:03.848Z,1007.9
2022-11-24T04:26:01.563Z,1007.9
2022-11-24T04:27:01.081Z,1007.85
2022-11-24T04:28:10.251Z,1007.85
2022-11-24T04:29:01.051Z,1007.91
2022-11-24T04:30:01.441Z,1007.89
2022-11-24T04:31:01.534Z,1007.86
2022-11-24T04:32:01.117Z,1007.85
2022-11-24T04:33:13.455Z,1007.89
2022-11-24T04:34:01.422Z,1007.91
2022-11-24T04:35:01.112Z,1007.99
2022-11-24T04:36:01.136Z,1008
2022-11-24T04:37:01.133Z,1007.97
2022-11-24T04:39:24.246Z,1008.04
2022-11-24T04:39:24.689Z,1008.01
2022-11-24T04:40:01.073Z,1008.03
2022-11-24T04:41:01.055Z,1008.03
2022-11-24T04:42:01.067Z,1008.08
2022-11-24T04:43:01.069Z,1008.09
2022-11-24T04:44:01.099Z,1008.1
2022-11-24T04:45:01.037Z,1008.17
2022-11-24T04:46:01.087Z,1008.13
2022-11-24T04:47:01.152Z,1008.13
2022-11-24T04:48:01.045Z,1008.15
2022-11-24T04:49:01.120Z,1008.19
2022-11-24T04:50:01.407Z,1008.21
2022-11-24T04:51:01.269Z,1008.24
2022-11-24T04:52:01.026Z,1008.25
2022-11-24T04:53:01.597Z,1008.25
2022-11-24T04:54:01.884Z,1008.26
2022-11-24T04:55:01.706Z,1008.27
2022-11-24T04:56:01.162Z,1008.28
2022-11-24T04:57:01.063Z,1008.3
2022-11-24T04:58:01.059Z,1008.31
2022-11-24T04:59:06.638Z,1008.35
2022-11-24T05:00:01.049Z,1008.3
2022-11-24T05:01:01.077Z,1008.33
2022-11-24T05:02:01.421Z,1008.33
2022-11-24T05:03:01.361Z,1008.32
2022-11-24T05:04:02.640Z,1008.32
2022-11-24T05:05:02.332Z,1008.32
2022-11-24T05:06:02.027Z,1008.34
2022-11-24T05:07:01.415Z,1008.33
2022-11-24T05:08:01.217Z,1008.33
2022-11-24T05:09:01.945Z,1008.33
2022-11-24T05:10:01.198Z,1008.34
2022-11-24T05:11:01.313Z,1008.33
2022-11-24T05:12:01.340Z,1008.35
2022-11-24T05:13:01.347Z,1008.37
2022-11-24T05:14:01.070Z,1008.41
2022-11-24T05:15:01.219Z,1008.34
2022-11-24T05:16:01.949Z,1008.41
2022-11-24T05:17:01.463Z,1008.41
2022-11-24T05:18:01.079Z,1008.4
2022-11-24T05:19:01.096Z,1008.42
2022-11-24T05:20:01.506Z,1008.41
2022-11-24T05:21:01.212Z,1008.48
2022-11-24T05:22:01.308Z,1008.43
2022-11-24T05:23:01.855Z,1008.46
2022-11-24T05:24:01.061Z,1008.5
2022-11-24T05:25:00.710Z,1008.56
2022-11-24T05:26:00.360Z,1008.53
2022-11-24T05:26:59.995Z,1008.53
2022-11-24T05:27:59.696Z,1008.58
2022-11-24T05:29:01.351Z,1008.54
2022-11-24T05:30:02.064Z,1008.59
2022-11-24T05:31:01.552Z,1008.57
2022-11-24T05:32:01.283Z,1008.58
2022-11-24T05:33:01.942Z,1008.58
2022-11-24T05:34:01.045Z,1008.62
2022-11-24T05:35:01.122Z,1008.64
2022-11-24T05:36:01.095Z,1008.65
2022-11-24T05:37:01.092Z,1008.7
2022-11-24T05:38:01.049Z,1008.68
2022-11-24T05:39:08.341Z,1008.76
2022-11-24T05:40:01.050Z,1008.77
2022-11-24T05:41:01.177Z,1008.78
2022-11-24T05:42:01.369Z,1008.79
2022-11-24T05:43:01.792Z,1008.78
2022-11-24T05:44:02.071Z,1008.79
2022-11-24T05:45:01.683Z,1008.81
2022-11-24T05:46:01.344Z,1008.75
2022-11-24T05:47:02.063Z,1008.77
2022-11-24T05:48:01.055Z,1008.77
2022-11-24T05:49:01.056Z,1008.76
2022-11-24T05:50:01.454Z,1008.8
2022-11-24T05:51:05.160Z,1008.83
2022-11-24T05:52:01.729Z,1008.79
2022-11-24T05:53:01.104Z,1008.82
2022-11-24T05:54:01.939Z,1008.85
2022-11-24T05:55:01.839Z,1008.88
2022-11-24T05:56:01.210Z,1008.87
2022-11-24T05:57:01.129Z,1008.85
2022-11-24T05:58:01.139Z,1008.85
2022-11-24T05:59:05.360Z,1008.88
2022-11-24T06:00:01.111Z,1008.93
2022-11-24T06:01:01.327Z,1008.95
2022-11-24T06:02:01.373Z,1008.95
2022-11-24T06:03:01.977Z,1008.99
2022-11-24T06:04:03.825Z,1009.01
2022-11-24T06:05:02.373Z,1008.95
2022-11-24T06:06:01.392Z,1008.97
2022-11-24T06:07:00.736Z,1009
2022-11-24T06:08:00.402Z,1009
2022-11-24T06:09:06.148Z,1009.07
2022-11-24T06:10:01.262Z,1009.1
2022-11-24T06:11:01.917Z,1009.08
2022-11-24T06:12:01.258Z,1009.11
2022-11-24T06:13:01.078Z,1009.12
2022-11-24T06:14:11.314Z,1009.18
2022-11-24T06:15:01.074Z,1009.17
2022-11-24T06:16:01.577Z,1009.18
2022-11-24T06:17:01.556Z,1009.2
2022-11-24T06:18:01.552Z,1009.24
2022-11-24T06:19:12.731Z,1009.22
2022-11-24T06:20:01.175Z,1009.22
2022-11-24T06:21:10.887Z,1009.24
2022-11-24T06:22:01.084Z,1009.25
2022-11-24T06:23:01.135Z,1009.27
2022-11-24T06:24:15.320Z,1009.27
2022-11-24T06:25:01.429Z,1009.29
2022-11-24T06:26:01.049Z,1009.28
2022-11-24T06:27:01.078Z,1009.32
2022-11-24T06:28:01.065Z,1009.34
2022-11-24T06:29:01.096Z,1009.3
2022-11-24T06:30:01.703Z,1009.3
2022-11-24T06:31:01.037Z,1009.34
2022-11-24T06:32:00.748Z,1009.3
2022-11-24T06:33:01.039Z,1009.36
2022-11-24T06:34:00.758Z,1009.38
2022-11-24T06:35:01.024Z,1009.42
2022-11-24T06:36:01.443Z,1009.4
2022-11-24T06:37:01.545Z,1009.43
2022-11-24T06:38:01.231Z,1009.42
2022-11-24T06:39:01.158Z,1009.47
2022-11-24T06:40:01.112Z,1009.49
2022-11-24T06:41:01.689Z,1009.5
2022-11-24T06:42:01.284Z,1009.5
2022-11-24T06:43:01.124Z,1009.51
2022-11-24T06:44:01.062Z,1009.47
2022-11-24T06:45:06.016Z,1009.53
2022-11-24T06:46:02.182Z,1009.51
2022-11-24T06:47:02.274Z,1009.51
2022-11-24T06:48:02.095Z,1009.56
2022-11-24T06:49:01.154Z,1009.55
2022-11-24T06:50:04.252Z,1009.53
2022-11-24T06:51:01.327Z,1009.55
2022-11-24T06:52:01.068Z,1009.56
2022-11-24T06:53:01.159Z,1009.55
2022-11-24T06:54:01.088Z,1009.51
2022-11-24T06:55:01.085Z,1009.52
2022-11-24T06:56:01.470Z,1009.55
2022-11-24T06:57:01.101Z,1009.49
2022-11-24T06:58:01.253Z,1009.55
2022-11-24T06:59:01.108Z,1009.52
2022-11-24T07:00:01.107Z,1009.53
2022-11-24T07:01:01.053Z,1009.55
2022-11-24T07:02:01.200Z,1009.57
2022-11-24T07:03:01.658Z,1009.55
2022-11-24T07:04:01.151Z,1009.59
2022-11-24T07:05:01.774Z,1009.59
2022-11-24T07:06:01.821Z,1009.57
2022-11-24T07:07:01.147Z,1009.61
2022-11-24T07:08:01.049Z,1009.64
2022-11-24T07:09:01.147Z,1009.63
2022-11-24T07:10:01.240Z,1009.64
2022-11-24T07:11:01.147Z,1009.64
2022-11-24T07:12:00.905Z,1009.66
2022-11-24T07:13:01.089Z,1009.65
2022-11-24T07:14:01.094Z,1009.67
2022-11-24T07:15:01.213Z,1009.73
2022-11-24T07:16:01.237Z,1009.7
2022-11-24T07:17:01.113Z,1009.74
2022-11-24T07:18:01.235Z,1009.74
2022-11-24T07:19:01.132Z,1009.71
2022-11-24T07:20:01.051Z,1009.76
2022-11-24T07:21:01.132Z,1009.79
2022-11-24T07:22:01.436Z,1009.76
2022-11-24T07:23:01.071Z,1009.71
2022-11-24T07:24:01.150Z,1009.81
2022-11-24T07:25:01.453Z,1009.81
2022-11-24T07:26:06.403Z,1009.79
2022-11-24T07:27:01.789Z,1009.77
2022-11-24T07:28:01.436Z,1009.78
2022-11-24T07:29:01.104Z,1009.77
2022-11-24T07:30:01.161Z,1009.82
2022-11-24T07:31:01.826Z,1009.81
2022-11-24T07:32:05.449Z,1009.85
2022-11-24T07:33:01.832Z,1009.84
2022-11-24T07:34:01.116Z,1009.87
2022-11-24T07:35:00.821Z,1009.88
2022-11-24T07:36:00.520Z,1009.93
2022-11-24T07:37:00.449Z,1009.89
2022-11-24T07:38:00.519Z,1009.89
2022-11-24T07:39:00.282Z,1009.94
2022-11-24T07:39:59.935Z,1009.92
2022-11-24T07:40:59.629Z,1009.87
2022-11-24T07:42:01.238Z,1009.95
2022-11-24T07:43:03.099Z,1009.94
2022-11-24T07:44:01.885Z,1009.94
2022-11-24T07:45:01.124Z,1010
2022-11-24T07:46:01.307Z,1010.01
2022-11-24T07:47:00.584Z,1010.01
2022-11-24T07:48:00.276Z,1010.06
2022-11-24T07:48:59.974Z,1010.02
2022-11-24T07:50:02.901Z,1010.04
2022-11-24T07:51:01.242Z,1010.06
2022-11-24T07:52:01.143Z,1010.05
2022-11-24T07:53:00.796Z,1010.09
2022-11-24T07:54:00.438Z,1010.09
2022-11-24T07:55:05.652Z,1010.09
2022-11-24T07:56:02.598Z,1010.05
2022-11-24T07:57:01.109Z,1010.04
2022-11-24T07:58:01.056Z,1010.05
2022-11-24T07:59:01.089Z,1010.08
2022-11-24T08:00:08.747Z,1010.04
2022-11-24T08:01:01.080Z,1010.07
2022-11-24T08:02:01.152Z,1010.06
2022-11-24T08:03:01.937Z,1010
2022-11-24T08:04:01.185Z,1010.02
2022-11-24T08:05:11.525Z,1010.09
2022-11-24T08:06:23.944Z,1010.06
2022-11-24T08:07:01.151Z,1010.06
2022-11-24T08:08:01.053Z,1010.07
2022-11-24T08:09:01.143Z,1010.06
2022-11-24T08:10:14.623Z,1010.07
2022-11-24T08:11:01.848Z,1010.07
2022-11-24T08:12:01.343Z,1010.09
2022-11-24T08:13:01.578Z,1010.02
2022-11-24T08:14:01.780Z,1010.04
2022-11-24T08:15:16.538Z,1010.02
2022-11-24T08:16:01.569Z,1010.06
2022-11-24T08:17:01.875Z,1010.04
2022-11-24T08:18:01.606Z,1010.02
2022-11-24T08:19:01.088Z,1010.06
2022-11-24T08:20:01.150Z,1010.04
2022-11-24T08:21:01.107Z,1010.05
2022-11-24T08:22:01.104Z,1010.11
2022-11-24T08:23:01.143Z,1010.09
2022-11-24T08:24:01.065Z,1010.09
2022-11-24T08:25:01.133Z,1010.07
2022-11-24T08:26:01.512Z,1010.07
2022-11-24T08:27:01.151Z,1010.09
2022-11-24T08:28:01.812Z,1010.06
2022-11-24T08:29:01.159Z,1010.06
2022-11-24T08:30:01.110Z,1010.08
2022-11-24T08:31:01.800Z,1010.09
2022-11-24T08:32:02.209Z,1010.12
2022-11-24T08:33:01.483Z,1010.08
2022-11-24T08:34:01.120Z,1010.1
2022-11-24T08:35:13.486Z,1010.06
2022-11-24T08:36:01.094Z,1010.04
2022-11-24T08:37:01.118Z,1010.06
2022-11-24T08:38:04.671Z,1010.04
2022-11-24T08:39:01.142Z,1010.06
2022-11-24T08:40:01.144Z,1010.06
2022-11-24T08:41:01.042Z,1010.08
2022-11-24T08:42:01.134Z,1010.05
2022-11-24T08:43:01.047Z,1010.02
2022-11-24T08:44:01.152Z,1010.04
2022-11-24T08:45:17.516Z,1010.03
2022-11-24T08:46:01.491Z,1010.05
2022-11-24T08:47:01.087Z,1010.06
2022-11-24T08:48:01.082Z,1010.05
2022-11-24T08:49:01.763Z,1010.07
2022-11-24T08:50:01.076Z,1010.07
2022-11-24T08:51:01.091Z,1010.1
2022-11-24T08:52:01.106Z,1010.12
2022-11-24T08:53:01.775Z,1010.13
2022-11-24T08:54:02.424Z,1010.18
2022-11-24T08:55:02.117Z,1010.21
2022-11-24T08:56:02.027Z,1010.28
2022-11-24T08:57:01.848Z,1010.29
2022-11-24T08:58:01.435Z,1010.25
2022-11-24T08:59:02.462Z,1010.25
2022-11-24T09:00:02.705Z,1010.26
2022-11-24T09:01:01.210Z,1010.28
2022-11-24T09:02:01.425Z,1010.25
2022-11-24T09:03:02.076Z,1010.25
2022-11-24T09:04:01.547Z,1010.33
2022-11-24T09:05:01.282Z,1010.35
2022-11-24T09:06:01.089Z,1010.43
2022-11-24T09:07:01.085Z,1010.47
2022-11-24T09:08:01.114Z,1010.45
2022-11-24T09:09:01.098Z,1010.44
2022-11-24T09:10:01.186Z,1010.38
2022-11-24T09:11:01.476Z,1010.4
2022-11-24T09:12:01.178Z,1010.4
2022-11-24T09:13:00.815Z,1010.41
2022-11-24T09:14:00.401Z,1010.42
2022-11-24T09:14:59.945Z,1010.44
2022-11-24T09:15:59.594Z,1010.39
2022-11-24T09:17:01.212Z,1010.43
2022-11-24T09:18:01.160Z,1010.42
2022-11-24T09:19:01.815Z,1010.44
2022-11-24T09:20:01.289Z,1010.42
2022-11-24T09:21:01.607Z,1010.42
2022-11-24T09:22:01.287Z,1010.36
2022-11-24T09:23:01.100Z,1010.44
2022-11-24T09:24:08.402Z,1010.47
2022-11-24T09:25:01.832Z,1010.48
2022-11-24T09:26:02.544Z,1010.39
2022-11-24T09:27:01.123Z,1010.42
2022-11-24T09:28:01.110Z,1010.43
2022-11-24T09:29:01.042Z,1010.51
2022-11-24T09:30:01.147Z,1010.44
2022-11-24T09:31:22.339Z,1010.42
2022-11-24T09:32:06.502Z,1010.45
2022-11-24T09:33:01.362Z,1010.44
2022-11-24T09:34:01.307Z,1010.43
2022-11-24T09:35:01.068Z,1010.42
2022-11-24T09:36:01.614Z,1010.42
2022-11-24T09:37:01.099Z,1010.42
2022-11-24T09:38:01.096Z,1010.48
2022-11-24T09:39:01.796Z,1010.43
2022-11-24T09:40:01.095Z,1010.43
2022-11-24T09:41:01.814Z,1010.43
2022-11-24T09:42:01.825Z,1010.41
2022-11-24T09:43:02.041Z,1010.45
2022-11-24T09:44:01.509Z,1010.48
2022-11-24T09:45:01.515Z,1010.46
2022-11-24T09:46:05.827Z,1010.47
2022-11-24T09:47:01.237Z,1010.46
2022-11-24T09:48:01.222Z,1010.48
2022-11-24T09:49:02.609Z,1010.47
2022-11-24T09:50:01.657Z,1010.49
2022-11-24T09:51:05.761Z,1010.46
2022-11-24T09:52:01.377Z,1010.52
2022-11-24T09:53:01.197Z,1010.51
2022-11-24T09:54:03.934Z,1010.5
2022-11-24T09:55:03.952Z,1010.46
2022-11-24T09:56:08.447Z,1010.52
2022-11-24T09:57:01.820Z,1010.48
2022-11-24T09:58:01.201Z,1010.57
2022-11-24T09:59:01.198Z,1010.59
2022-11-24T10:00:01.045Z,1010.58
2022-11-24T10:01:11.600Z,1010.59
2022-11-24T10:02:01.449Z,1010.59
2022-11-24T10:03:01.235Z,1010.64
2022-11-24T10:04:06.279Z,1010.63
2022-11-24T10:05:02.094Z,1010.63
2022-11-24T10:06:15.934Z,1010.69
2022-11-24T10:07:01.636Z,1010.72
2022-11-24T10:08:01.148Z,1010.76
2022-11-24T10:09:02.125Z,1010.76
2022-11-24T10:10:03.012Z,1010.73
2022-11-24T10:11:01.906Z,1010.77
2022-11-24T10:12:01.141Z,1010.78
2022-11-24T10:13:00.592Z,1010.78
2022-11-24T10:14:00.281Z,1010.71
2022-11-24T10:14:59.823Z,1010.75
2022-11-24T10:16:01.491Z,1010.66
2022-11-24T10:17:01.109Z,1010.72
2022-11-24T10:18:01.116Z,1010.75
2022-11-24T10:19:01.132Z,1010.69
2022-11-24T10:20:01.072Z,1010.65
2022-11-24T10:21:01.042Z,1010.68
2022-11-24T10:22:01.144Z,1010.68
2022-11-24T10:23:01.279Z,1010.68
2022-11-24T10:24:01.571Z,1010.68
2022-11-24T10:25:02.226Z,1010.66
2022-11-24T10:26:02.611Z,1010.63
2022-11-24T10:27:01.507Z,1010.6
2022-11-24T10:28:01.107Z,1010.69
2022-11-24T10:29:01.104Z,1010.69
2022-11-24T10:30:01.349Z,1010.7
2022-11-24T10:31:01.188Z,1010.7
2022-11-24T10:32:01.196Z,1010.73
2022-11-24T10:33:00.870Z,1010.67
2022-11-24T10:34:01.133Z,1010.7
2022-11-24T10:35:00.565Z,1010.7
2022-11-24T10:36:00.135Z,1010.7
2022-11-24T10:37:00.013Z,1010.71
2022-11-24T10:37:59.548Z,1010.7
2022-11-24T10:39:02.758Z,1010.71
2022-11-24T10:40:01.270Z,1010.69
2022-11-24T10:41:01.256Z,1010.67
2022-11-24T10:42:02.188Z,1010.68
2022-11-24T10:43:01.080Z,1010.69
2022-11-24T10:44:01.039Z,1010.65
2022-11-24T10:45:01.047Z,1010.68
2022-11-24T10:46:01.115Z,1010.62
2022-11-24T10:47:01.395Z,1010.65
2022-11-24T10:48:01.517Z,1010.68
2022-11-24T10:49:01.158Z,1010.64
2022-11-24T10:50:03.897Z,1010.61
2022-11-24T10:51:03.984Z,1010.63
2022-11-24T10:52:01.141Z,1010.68
2022-11-24T10:53:00.615Z,1010.59
2022-11-24T10:54:00.321Z,1010.59
2022-11-24T10:55:00.023Z,1010.62
2022-11-24T10:55:59.588Z,1010.66
2022-11-24T10:57:01.361Z,1010.65
2022-11-24T10:58:01.080Z,1010.65
2022-11-24T10:59:01.091Z,1010.7
2022-11-24T11:00:01.111Z,1010.63
2022-11-24T11:01:01.166Z,1010.64
2022-11-24T11:02:02.003Z,1010.67
2022-11-24T11:03:02.208Z,1010.64
2022-11-24T11:04:01.749Z,1010.67
2022-11-24T11:05:01.164Z,1010.63
2022-11-24T11:06:01.123Z,1010.69
2022-11-24T11:07:01.120Z,1010.64
2022-11-24T11:08:05.467Z,1010.65
2022-11-24T11:09:01.707Z,1010.65
2022-11-24T11:10:01.151Z,1010.64
2022-11-24T11:11:00.837Z,1010.68
2022-11-24T11:12:14.949Z,1010.67
2022-11-24T11:13:02.227Z,1010.63
2022-11-24T11:14:04.191Z,1010.61
2022-11-24T11:15:00.851Z,1010.67
2022-11-24T11:16:00.501Z,1010.65
2022-11-24T11:17:00.194Z,1010.68
2022-11-24T11:18:00.159Z,1010.62
2022-11-24T11:19:00.240Z,1010.66
2022-11-24T11:20:02.291Z,1010.69
2022-11-24T11:21:01.937Z,1010.66
2022-11-24T11:22:02.621Z,1010.66
2022-11-24T11:23:01.119Z,1010.64
2022-11-24T11:24:01.933Z,1010.66
2022-11-24T11:25:01.944Z,1010.65
2022-11-24T11:26:01.234Z,1010.62
2022-11-24T11:27:05.725Z,1010.66
2022-11-24T11:28:06.957Z,1010.63
2022-11-24T11:31:19.058Z,1010.65
2022-11-24T11:34:03.867Z,1010.67
2022-11-24T11:35:01.287Z,1010.6
2022-11-24T11:36:02.020Z,1010.6
2022-11-24T11:37:10.557Z,1010.65
2022-11-24T11:38:02.119Z,1010.61
2022-11-24T11:39:01.510Z,1010.6
2022-11-24T11:40:01.520Z,1010.64
2022-11-24T11:41:01.148Z,1010.66
2022-11-24T11:42:25.748Z,1010.66
2022-11-24T11:43:02.852Z,1010.69
2022-11-24T11:44:01.147Z,1010.63
2022-11-24T11:45:01.149Z,1010.66
2022-11-24T11:46:01.924Z,1010.64
2022-11-24T11:47:15.127Z,1010.66
2022-11-24T11:48:01.052Z,1010.61
2022-11-24T11:49:01.047Z,1010.63
2022-11-24T11:50:01.185Z,1010.63
2022-11-24T11:52:16.740Z,1010.63
2022-11-24T11:53:02.168Z,1010.68
2022-11-24T11:54:01.423Z,1010.61
2022-11-24T11:55:02.284Z,1010.62
2022-11-24T11:56:02.317Z,1010.67
2022-11-24T11:57:01.270Z,1010.66
2022-11-24T11:58:01.071Z,1010.72
2022-11-24T11:59:01.458Z,1010.7
2022-11-24T12:00:01.145Z,1010.69
2022-11-24T12:01:01.227Z,1010.67
2022-11-24T12:02:01.072Z,1010.67
2022-11-24T12:03:01.213Z,1010.63
2022-11-24T12:04:01.310Z,1010.58
2022-11-24T12:05:02.883Z,1010.61
2022-11-24T12:06:01.090Z,1010.64
2022-11-24T12:07:01.140Z,1010.6
2022-11-24T12:08:06.369Z,1010.58
2022-11-24T12:09:20.011Z,1010.63
2022-11-24T12:10:01.380Z,1010.62
2022-11-24T12:11:01.361Z,1010.65
2022-11-24T12:12:01.361Z,1010.61
2022-11-24T12:13:02.049Z,1010.59